Terminal Aerodrome Forecast
Issued by NWS

Home | Current Version | Previous Version | Text Only | Print | Product List | Glossary On
Versions: 1 2 3 4 5 6 7 8 9 10 11 12 13 14 15 16 17 18 19 20 21 22 23 24 25 26 27 28 29 30 31 32 33 34 35 36 37 38 39 40 41 42 43 44 45 46 47 48 49 50
000
FTUS45 KBOU 241149
TAFAPA
TAF
KAPA 241149Z 2412/2512 36007KT 6SM -SN BR BKN012 OVC025
     FM241500 02007KT P6SM SCT012 BKN025 BKN050
      TEMPO 2415/2417 -SN BKN012
     FM242000 06008KT P6SM SCT025 BKN050 PROB30 2421/2502 3SM -SHSN
      BKN020
     FM250300 13007KT P6SM SCT025 BKN050
     FM250500 20007KT P6SM FEW070=

USA.gov is the U.S. government's official web portal to all federal, state and local government web resources and services.